Aviation Digital Data Service (ADDS)

Output produced by METARs form (1323 UTC 24 May 2019)
found at http://www.aviationweather.gov/metar/data/
 
TAF DXXX 241100Z 2412/2518 20010KT 9999 FEW014 
     TEMPO 2412/2416 TS BKN014 FEW020CB 
     PROB30 4000 TSRA 
     BECMG 2422/2424 VRB05KT 
     BECMG 2508/2510 20010KT